De Leon, TX

8:01 PM CST on December 27, 2014 (GMT -0600)
De Leon | Change Station
CLOSE
Current Station
Personal Weather Station
Location: De Leon, TX
Elevation: 1319 ft
Nearby Weather Stations

Elev 1319 ft 32.10 °N, 98.54 °W | Updated 58 seconds ago

Overcast
Overcast
33.9 °F
Feels Like 34 °F
N
0.0
Wind Variable Wind from NW
Gusts 7.0 mph

Today
High -- | Low -- °F
--% Chance of Precip.
Yesterday
High -- | Low -- °F
Precip. -- in
7:33 AM 5:37 PM
Waxing Crescent, 42% visible
Pressure 30.30 in
Visibility 10.0 miles
Clouds Overcast 6000 ft
Windchill 34 °F
Dew Point 28 °F
Humidity 78%
Rainfall 0.00 in
Snow Depth Not available.
UV 0 out of 12
Pollen 10.50 out of 12
Air Quality Not available.
Flu Activity Not available.
METAR KMKN 280155Z AUTO 35014G19KT 10SM OVC060 01/M02 A3030 RMK AO2 T00121020

More Conditions Fewer Conditions

Pressure 30.30 in
Visibility 10.0 miles
Clouds Overcast 6000 ft
Windchill 34 °F
Dew Point 28 °F
Humidity 78%
Rainfall 0.00 in
Snow Depth Not available.
UV 0 out of 12
Pollen 10.50 out of 12
Air Quality Not available.
Flu Activity Not available.
METAR KMKN 280155Z AUTO 35014G19KT 10SM OVC060 01/M02 A3030 RMK AO2 T00121020

More Conditions Fewer Conditions

10-Day Weather Forecast

Almanac

Astronomy

Dec. 27, 2014 Rise Set
Actual Time
Civil Twilight
Nautical Twilight
Astronomical Twilight
Moon
Length of Visible Light
Length of Day
Tomorrow will be .
, % of the Moon is Illuminated

Today's Extremes

State Highs State Lows

Community

WunderPhotos

Upload Photos

1,781,137 photos uploaded!

WunderBlogs® & News

Nearby

Air Quality

  Air Quality AQ Index Pollutant
Not available.

Snow Depth

Station Depth Elevation

Earthquake Activity

City Distance Mag. Time & Date
Minimum magnitude displayed is 2.5.

Coastal Water Temperatures

Place Temperature

Nearby Weather Stations